createdAt,value
2023-05-12T00:00:55.782Z,7.85
2023-05-12T00:04:08.699Z,5.95
2023-05-12T00:07:21.360Z,7.57
2023-05-12T00:10:36.168Z,8.25
2023-05-12T00:13:48.697Z,5.65
2023-05-12T00:17:01.437Z,7.15
2023-05-12T00:20:13.831Z,7.47
2023-05-12T00:23:26.551Z,5.55
2023-05-12T00:26:38.897Z,5.62
2023-05-12T00:29:51.633Z,7.35
2023-05-12T00:33:04.593Z,7.40
2023-05-12T00:36:17.309Z,6.95
2023-05-12T00:39:29.669Z,5.87
2023-05-12T00:42:42.386Z,7.87
2023-05-12T00:45:54.794Z,7.43
2023-05-12T00:49:07.860Z,6.80
2023-05-12T00:52:20.888Z,9.15
2023-05-12T00:55:33.556Z,4.60
2023-05-12T00:58:46.229Z,5.60
2023-05-12T01:01:59.992Z,5.97
2023-05-12T01:05:12.835Z,6.20
2023-05-12T01:08:25.925Z,7.53
2023-05-12T01:11:38.299Z,5.78
2023-05-12T01:14:53.293Z,8.07
2023-05-12T01:18:06.256Z,7.18
2023-05-12T01:21:19.662Z,5.68
2023-05-12T01:24:33.265Z,7.10
2023-05-12T01:27:45.963Z,7.15
2023-05-12T01:30:58.635Z,7.07
2023-05-12T01:34:18.611Z,6.43
2023-05-12T01:37:31.242Z,6.57
2023-05-12T01:40:44.450Z,5.95
2023-05-12T01:43:57.634Z,6.72
2023-05-12T01:47:11.405Z,8.02
2023-05-12T01:50:23.969Z,7.70
2023-05-12T01:53:36.636Z,7.30
2023-05-12T01:56:49.217Z,9.25
2023-05-12T02:00:01.987Z,9.30
2023-05-12T02:03:14.738Z,9.30
2023-05-12T02:06:28.581Z,7.70
2023-05-12T02:09:41.684Z,6.05
2023-05-12T02:12:54.488Z,6.57
2023-05-12T02:16:07.735Z,7.80
2023-05-12T02:19:21.002Z,7.15
2023-05-12T02:22:33.342Z,7.22
2023-05-12T02:25:46.586Z,8.68
2023-05-12T02:28:58.985Z,13.00
2023-05-12T02:32:12.079Z,6.30
2023-05-12T02:35:24.822Z,7.03
2023-05-12T02:38:37.202Z,5.60
2023-05-12T02:41:49.963Z,6.55
2023-05-12T02:45:03.008Z,8.52
2023-05-12T02:48:15.912Z,7.25
2023-05-12T02:51:28.330Z,8.27
2023-05-12T02:54:41.000Z,6.45
2023-05-12T02:57:53.716Z,6.82
2023-05-12T03:01:11.314Z,6.00
2023-05-12T03:04:24.399Z,6.07
2023-05-12T03:07:37.101Z,5.40
2023-05-12T03:10:49.478Z,5.78
2023-05-12T03:14:02.227Z,6.18
2023-05-12T03:17:14.829Z,6.75
2023-05-12T03:20:27.508Z,6.82
2023-05-12T03:23:39.884Z,6.82
2023-05-12T03:26:52.591Z,6.95
2023-05-12T03:30:05.754Z,8.85
2023-05-12T03:33:19.314Z,6.93
2023-05-12T03:36:31.864Z,6.65
2023-05-12T03:39:44.586Z,6.43
2023-05-12T03:42:56.937Z,6.60
2023-05-12T03:46:09.918Z,7.90
2023-05-12T03:49:22.582Z,7.57
2023-05-12T03:52:37.309Z,7.75
2023-05-12T03:55:49.733Z,7.72
2023-05-12T03:59:02.445Z,6.45
2023-05-12T04:02:14.950Z,7.22
2023-05-12T04:05:27.672Z,6.85
2023-05-12T04:08:41.976Z,8.50
2023-05-12T04:11:54.926Z,5.65
2023-05-12T04:15:08.214Z,5.78
2023-05-12T04:18:21.044Z,8.52
2023-05-12T04:21:33.903Z,6.82
2023-05-12T04:24:46.757Z,7.55
2023-05-12T04:27:59.220Z,6.12
2023-05-12T04:31:11.977Z,6.68
2023-05-12T04:34:24.709Z,6.90
2023-05-12T04:37:37.830Z,7.07
2023-05-12T04:40:50.281Z,8.80
2023-05-12T04:44:03.103Z,6.32
2023-05-12T04:47:15.640Z,6.60
2023-05-12T04:50:28.309Z,7.97
2023-05-12T04:53:40.752Z,6.37
2023-05-12T04:56:55.117Z,6.43
2023-05-12T05:00:09.179Z,8.63
2023-05-12T05:03:22.648Z,8.95
2023-05-12T05:06:35.585Z,7.12
2023-05-12T05:09:49.094Z,6.45
2023-05-12T05:13:01.753Z,7.80
2023-05-12T05:16:14.902Z,7.05
2023-05-12T05:19:40.479Z,6.57
2023-05-12T05:23:00.379Z,7.97
2023-05-12T05:26:12.885Z,9.10
2023-05-12T05:29:26.767Z,8.27
2023-05-12T05:32:40.502Z,9.40
2023-05-12T05:35:53.566Z,7.85
2023-05-12T05:39:06.596Z,6.93
2023-05-12T05:42:21.951Z,7.90
2023-05-12T05:45:34.646Z,8.95
2023-05-12T05:48:47.387Z,9.27
2023-05-12T05:52:03.270Z,7.45
2023-05-12T05:55:17.304Z,7.32
2023-05-12T05:58:29.870Z,10.32
2023-05-12T06:01:45.002Z,8.63
2023-05-12T06:04:57.902Z,9.30
2023-05-12T06:08:13.611Z,10.15
2023-05-12T06:11:26.513Z,9.02
2023-05-12T06:14:38.874Z,7.20
2023-05-12T06:17:51.559Z,7.28
2023-05-12T06:21:04.820Z,7.82
2023-05-12T06:24:17.465Z,9.90
2023-05-12T06:27:29.886Z,9.20
2023-05-12T06:30:42.610Z,8.70
2023-05-12T06:33:55.075Z,10.38
2023-05-12T06:37:07.781Z,10.32
2023-05-12T06:40:20.244Z,8.63
2023-05-12T06:43:32.900Z,9.82
2023-05-12T06:46:48.906Z,8.07
2023-05-12T06:50:01.601Z,8.25
2023-05-12T06:53:13.973Z,9.57
2023-05-12T06:56:26.914Z,8.15
2023-05-12T06:59:39.268Z,6.50
2023-05-12T07:02:52.841Z,7.05
2023-05-12T07:06:07.892Z,8.27
2023-05-12T07:09:20.776Z,7.75
2023-05-12T07:12:34.473Z,7.22
2023-05-12T07:15:47.190Z,9.20
2023-05-12T07:18:59.658Z,6.93
2023-05-12T07:22:12.321Z,8.77
2023-05-12T07:25:24.905Z,7.95
2023-05-12T07:28:38.163Z,8.40
2023-05-12T07:31:50.876Z,7.60
2023-05-12T07:35:03.872Z,6.68
2023-05-12T07:38:16.246Z,9.13
2023-05-12T07:41:28.914Z,8.95
2023-05-12T07:44:41.451Z,7.20
2023-05-12T07:47:54.261Z,8.60
2023-05-12T07:51:07.171Z,7.47
2023-05-12T07:54:19.814Z,7.87
2023-05-12T07:57:33.196Z,7.07
2023-05-12T08:00:45.925Z,8.00
2023-05-12T08:03:58.887Z,7.87
2023-05-12T08:07:11.390Z,10.43
2023-05-12T08:10:26.818Z,9.23
2023-05-12T08:13:39.235Z,9.50
2023-05-12T08:16:51.979Z,7.25
2023-05-12T08:20:05.185Z,9.55
2023-05-12T08:23:17.932Z,10.48
2023-05-12T08:26:32.339Z,8.30
2023-05-12T08:29:45.003Z,8.95
2023-05-12T08:32:57.585Z,8.95
2023-05-12T08:36:10.293Z,7.62
2023-05-12T08:39:22.734Z,8.40
2023-05-12T08:42:37.871Z,10.95
2023-05-12T08:45:50.278Z,9.50
2023-05-12T08:49:03.084Z,8.18
2023-05-12T08:52:18.464Z,9.57
2023-05-12T08:55:34.036Z,9.35
2023-05-12T08:58:47.276Z,11.38
2023-05-12T09:02:00.135Z,12.65
2023-05-12T09:05:13.209Z,9.65
2023-05-12T09:08:26.384Z,12.05
2023-05-12T09:11:38.746Z,10.05
2023-05-12T09:15:15.035Z,13.62
2023-05-12T09:18:32.120Z,10.27
2023-05-12T09:21:44.795Z,9.30
2023-05-12T09:24:57.299Z,8.95
2023-05-12T09:28:10.010Z,9.85
2023-05-12T09:31:23.836Z,10.85
2023-05-12T09:34:38.689Z,9.80
2023-05-12T09:37:51.544Z,9.00
2023-05-12T09:41:05.916Z,11.25
2023-05-12T09:44:18.383Z,10.85
2023-05-12T09:47:35.561Z,8.82
2023-05-12T09:50:50.514Z,7.55
2023-05-12T09:54:06.423Z,7.20
2023-05-12T09:57:21.136Z,7.68
2023-05-12T10:00:52.444Z,7.53
2023-05-12T10:04:07.860Z,11.23
2023-05-12T10:07:22.924Z,11.75
2023-05-12T10:10:35.683Z,10.98
2023-05-12T10:13:48.060Z,9.32
2023-05-12T10:17:00.975Z,9.02
2023-05-12T10:20:13.597Z,8.18
2023-05-12T10:23:27.013Z,8.65
2023-05-12T10:26:39.942Z,13.52
2023-05-12T10:29:53.653Z,10.07
2023-05-12T10:33:09.239Z,11.80
2023-05-12T10:36:21.966Z,11.23
2023-05-12T10:39:34.694Z,13.30
2023-05-12T10:42:47.377Z,13.35
2023-05-12T10:46:19.662Z,12.45
2023-05-12T10:49:34.749Z,11.23
2023-05-12T10:52:54.394Z,12.00
2023-05-12T10:56:07.981Z,12.05
2023-05-12T10:59:24.693Z,12.85
2023-05-12T11:06:03.412Z,12.02
2023-05-12T11:09:17.636Z,10.02
2023-05-12T11:12:35.601Z,11.15
2023-05-12T11:15:48.511Z,10.43
2023-05-12T11:19:04.616Z,14.87
2023-05-12T11:22:21.724Z,10.80
2023-05-12T11:25:34.506Z,9.45
2023-05-12T11:28:47.355Z,9.38
2023-05-12T11:32:02.914Z,10.40
2023-05-12T11:35:17.586Z,11.70
2023-05-12T11:38:30.146Z,9.32
2023-05-12T11:41:42.801Z,9.35
2023-05-12T11:44:55.745Z,8.60
2023-05-12T11:48:11.285Z,10.80
2023-05-12T11:51:23.880Z,12.82
2023-05-12T11:54:37.733Z,8.80
2023-05-12T11:58:25.583Z,8.88
2023-05-12T12:01:49.047Z,10.20
2023-05-12T12:05:01.793Z,10.70
2023-05-12T12:08:15.916Z,8.98
2023-05-12T12:11:30.649Z,9.68
2023-05-12T12:14:43.221Z,9.10
2023-05-12T12:17:56.488Z,9.68
2023-05-12T12:21:08.868Z,9.20
2023-05-12T12:24:21.532Z,10.10
2023-05-12T12:27:33.904Z,12.50
2023-05-12T12:30:46.593Z,11.90
2023-05-12T12:33:59.212Z,9.93
2023-05-12T12:37:12.009Z,11.55
2023-05-12T12:40:24.366Z,9.68
2023-05-12T12:43:37.040Z,12.02
2023-05-12T12:46:49.477Z,8.95
2023-05-12T12:50:02.195Z,12.32
2023-05-12T12:53:14.570Z,10.52
2023-05-12T12:56:27.223Z,10.50
2023-05-12T12:59:39.572Z,11.55
2023-05-12T13:02:52.297Z,11.02
2023-05-12T13:06:04.813Z,9.77
2023-05-12T13:09:19.723Z,12.10
2023-05-12T13:12:32.658Z,12.50
2023-05-12T13:15:45.334Z,11.43
2023-05-12T13:18:57.759Z,11.25
2023-05-12T13:22:10.464Z,10.80
2023-05-12T13:25:22.985Z,12.88
2023-05-12T13:28:35.918Z,12.55
2023-05-12T13:31:48.274Z,16.85
2023-05-12T13:35:01.505Z,14.85
2023-05-12T13:38:14.603Z,14.27
2023-05-12T13:41:27.322Z,11.32
2023-05-12T13:44:39.702Z,12.15
2023-05-12T13:47:52.382Z,12.00
2023-05-12T13:51:04.956Z,13.20
2023-05-12T13:54:18.646Z,14.27
2023-05-12T13:57:31.000Z,9.82
2023-05-12T14:00:43.713Z,11.88
2023-05-12T14:03:56.367Z,13.10
2023-05-12T14:07:08.978Z,13.60
2023-05-12T14:10:21.695Z,11.73
2023-05-12T14:13:34.081Z,13.85
2023-05-12T14:16:46.870Z,10.38
2023-05-12T14:19:59.327Z,9.90
2023-05-12T14:23:12.221Z,10.35
2023-05-12T14:26:26.132Z,9.98
2023-05-12T14:29:38.822Z,9.15
2023-05-12T14:32:53.296Z,12.27
2023-05-12T14:36:07.786Z,16.70
2023-05-12T14:39:21.072Z,9.18
2023-05-12T14:42:34.068Z,10.50
2023-05-12T14:45:54.852Z,9.32
2023-05-12T14:49:11.199Z,12.45
2023-05-12T14:52:23.654Z,10.77
2023-05-12T14:55:36.947Z,10.60
2023-05-12T14:58:49.341Z,11.73
2023-05-12T15:02:02.150Z,14.32
2023-05-12T15:05:15.543Z,11.82
2023-05-12T15:08:28.223Z,9.80
2023-05-12T15:11:40.656Z,10.32
2023-05-12T15:14:53.475Z,8.90
2023-05-12T15:18:07.088Z,9.15
2023-05-12T15:21:19.730Z,9.75
2023-05-12T15:24:32.048Z,8.60
2023-05-12T15:27:44.724Z,9.38
2023-05-12T15:31:00.837Z,9.77
2023-05-12T15:34:13.507Z,8.90
2023-05-12T15:37:26.006Z,14.45
2023-05-12T15:40:38.630Z,21.10
2023-05-12T15:43:50.991Z,18.65
2023-05-12T15:47:03.827Z,14.98
2023-05-12T15:50:19.888Z,10.80
2023-05-12T15:53:32.754Z,18.55
2023-05-12T15:56:45.199Z,14.23
2023-05-12T15:59:59.776Z,10.93
2023-05-12T16:03:12.277Z,8.65
2023-05-12T16:06:25.041Z,9.10
2023-05-12T16:09:37.434Z,10.15
2023-05-12T16:12:52.286Z,10.25
2023-05-12T16:16:05.420Z,9.40
2023-05-12T16:19:18.647Z,10.18
2023-05-12T16:22:31.063Z,10.35
2023-05-12T16:25:45.528Z,12.90
2023-05-12T16:28:57.965Z,11.30
2023-05-12T16:32:10.698Z,10.65
2023-05-12T16:35:23.307Z,16.25
2023-05-12T16:38:36.230Z,15.45
2023-05-12T16:41:48.538Z,17.33
2023-05-12T16:45:01.586Z,33.15
2023-05-12T16:48:14.032Z,13.75
2023-05-12T16:51:30.473Z,37.15
2023-05-12T16:54:42.881Z,19.12
2023-05-12T16:57:55.601Z,16.62
2023-05-12T17:01:08.020Z,22.48
2023-05-12T17:04:21.113Z,19.90
2023-05-12T17:07:35.307Z,11.88
2023-05-12T17:10:48.027Z,17.35
2023-05-12T17:14:01.021Z,11.10
2023-05-12T17:17:13.823Z,13.55
2023-05-12T17:20:26.192Z,12.77
2023-05-12T17:23:38.853Z,10.90
2023-05-12T17:26:51.247Z,14.32
2023-05-12T17:30:04.679Z,12.02
2023-05-12T17:33:17.409Z,12.82
2023-05-12T17:36:30.071Z,13.80
2023-05-12T17:39:44.383Z,13.02
2023-05-12T17:42:57.053Z,14.32
2023-05-12T17:46:09.474Z,13.57
2023-05-12T17:49:22.136Z,11.35
2023-05-12T17:52:34.527Z,10.27
2023-05-12T17:55:47.150Z,12.93
2023-05-12T17:58:59.603Z,13.35
2023-05-12T18:02:13.793Z,10.98
2023-05-12T18:05:27.729Z,13.68
2023-05-12T18:08:40.112Z,10.65
2023-05-12T18:11:53.555Z,11.55
2023-05-12T18:15:06.499Z,9.65
2023-05-12T18:18:19.280Z,12.00
2023-05-12T18:21:32.673Z,10.02
2023-05-12T18:24:45.382Z,10.45
2023-05-12T18:27:57.859Z,10.05
2023-05-12T18:31:15.958Z,11.27
2023-05-12T18:34:29.741Z,11.63
2023-05-12T18:37:42.631Z,10.90
2023-05-12T18:40:55.539Z,12.50
2023-05-12T18:44:10.456Z,11.15
2023-05-12T18:47:22.938Z,10.50
2023-05-12T18:50:35.760Z,12.50
2023-05-12T18:53:48.203Z,11.45
2023-05-12T18:57:01.558Z,13.25
2023-05-12T19:00:14.153Z,11.48
2023-05-12T19:03:27.373Z,11.40
2023-05-12T19:06:39.812Z,12.23
2023-05-12T19:09:52.526Z,12.45
2023-05-12T19:13:04.872Z,13.23
2023-05-12T19:16:18.277Z,12.45
2023-05-12T19:19:31.113Z,11.70
2023-05-12T19:22:44.828Z,11.25
2023-05-12T19:25:57.223Z,11.77
2023-05-12T19:29:09.866Z,10.00
2023-05-12T19:32:22.268Z,11.88
2023-05-12T19:35:34.929Z,11.95
2023-05-12T19:38:47.309Z,11.15
2023-05-12T19:41:59.934Z,9.65
2023-05-12T19:45:12.486Z,11.00
2023-05-12T19:48:25.167Z,14.05
2023-05-12T19:51:37.484Z,10.85
2023-05-12T19:54:50.624Z,10.95
2023-05-12T19:58:03.073Z,10.70
2023-05-12T20:01:15.924Z,10.30
2023-05-12T20:04:28.677Z,14.27
2023-05-12T20:07:41.075Z,10.40
2023-05-12T20:10:53.727Z,13.23
2023-05-12T20:14:06.483Z,11.35
2023-05-12T20:17:19.174Z,12.18
2023-05-12T20:20:31.648Z,11.88
2023-05-12T20:23:44.345Z,12.27
2023-05-12T20:26:56.812Z,11.15
2023-05-12T20:30:10.144Z,12.15
2023-05-12T20:33:22.628Z,12.75
2023-05-12T20:36:35.324Z,9.85
2023-05-12T20:39:47.729Z,12.70
2023-05-12T20:43:00.478Z,11.85
2023-05-12T20:46:13.487Z,13.00
2023-05-12T20:49:26.162Z,12.85
2023-05-12T20:52:41.752Z,14.60
2023-05-12T20:55:54.402Z,14.30
2023-05-12T20:59:06.834Z,12.75
2023-05-12T21:02:19.732Z,13.30
2023-05-12T21:05:32.602Z,12.00
2023-05-12T21:08:46.821Z,11.80
2023-05-12T21:11:59.175Z,12.45
2023-05-12T21:15:11.868Z,14.98
2023-05-12T21:18:24.348Z,10.93
2023-05-12T21:21:37.375Z,12.40
2023-05-12T21:24:51.565Z,14.73
2023-05-12T21:28:04.645Z,14.43
2023-05-12T21:31:17.273Z,12.65
2023-05-12T21:34:31.292Z,13.13
2023-05-12T21:37:43.714Z,14.90
2023-05-12T21:40:56.904Z,13.23
2023-05-12T21:44:11.089Z,13.40
2023-05-12T21:47:24.047Z,12.77
2023-05-12T21:50:36.453Z,11.65
2023-05-12T21:53:49.077Z,10.65
2023-05-12T21:57:01.530Z,11.23
2023-05-12T22:00:15.183Z,13.70
2023-05-12T22:03:27.942Z,10.52
2023-05-12T22:06:40.297Z,11.25
2023-05-12T22:09:52.984Z,11.57
2023-05-12T22:13:05.337Z,10.20
2023-05-12T22:16:20.054Z,9.88
2023-05-12T22:19:39.060Z,11.07
2023-05-12T22:22:51.730Z,10.90
2023-05-12T22:26:04.217Z,11.70
2023-05-12T22:29:16.798Z,12.27
2023-05-12T22:32:29.284Z,12.98
2023-05-12T22:35:42.009Z,12.88
2023-05-12T22:38:54.403Z,12.70
2023-05-12T22:42:07.195Z,13.15
2023-05-12T22:45:19.606Z,11.07
2023-05-12T22:48:36.067Z,13.02
2023-05-12T22:51:51.497Z,12.23
2023-05-12T22:55:04.600Z,11.18
2023-05-12T22:58:17.105Z,13.48
2023-05-12T23:01:29.823Z,12.05
2023-05-12T23:04:42.183Z,11.18
2023-05-12T23:07:54.819Z,11.70
2023-05-12T23:11:07.257Z,12.98
2023-05-12T23:14:19.910Z,12.02
2023-05-12T23:17:32.322Z,11.57
2023-05-12T23:20:44.984Z,11.80
2023-05-12T23:23:57.371Z,12.23
2023-05-12T23:27:10.644Z,10.80
2023-05-12T23:30:23.338Z,12.68
2023-05-12T23:33:36.216Z,10.55
2023-05-12T23:36:48.656Z,9.93
2023-05-12T23:40:01.378Z,10.85
2023-05-12T23:43:13.703Z,13.02
2023-05-12T23:46:26.531Z,9.85
2023-05-12T23:49:39.156Z,10.95
2023-05-12T23:52:54.829Z,9.15
2023-05-12T23:56:07.479Z,12.98
2023-05-12T23:59:20.132Z,11.55
